Time;durP1;ratioP1;P1;durP2;ratioP2;P2;SDS_P1;SDS_P2;PMS_P1;PMS_P2;Temp;Humidity;BMP_temperature;BMP_pressure;BME280_temperature;BME280_humidity;BME280_pressure;Samples;Min_cycle;Max_cycle;Signal;HPM_P1;HPM_P2
2022/06/20 00:01:43;;;;;;;4.13;3.25;;;;;;;13.25;73.34;96592.09;4994079;28;20105;-59
2022/06/20 00:04:16;;;;;;;3.58;3.30;;;;;;;13.21;74.09;96586.13;4994069;28;20089;-59
2022/06/20 00:06:43;;;;;;;3.55;3.25;;;;;;;13.13;74.47;96597.00;4994049;28;20050;-59
2022/06/20 00:09:10;;;;;;;7.47;3.40;;;;;;;13.08;74.18;96588.50;4993983;28;20049;-60
2022/06/20 00:11:41;;;;;;;3.15;2.75;;;;;;;13.09;74.09;96586.72;4993989;28;20125;-59
2022/06/20 00:14:13;;;;;;;3.17;2.97;;;;;;;13.00;74.18;96582.75;4994007;28;20170;-61
2022/06/20 00:16:41;;;;;;;3.63;3.13;;;;;;;12.99;74.19;96579.28;4994003;28;20046;-61
2022/06/20 00:19:09;;;;;;;3.72;2.92;;;;;;;13.02;74.48;96575.66;4993789;28;20058;-61
2022/06/20 00:21:37;;;;;;;3.65;3.35;;;;;;;13.02;74.17;96573.03;4993851;28;20125;-61
2022/06/20 00:24:04;;;;;;;4.18;3.28;;;;;;;13.00;74.52;96573.09;4993941;28;20062;-61
2022/06/20 00:26:32;;;;;;;4.03;3.40;;;;;;;12.97;74.49;96561.88;4993811;28;20481;-62
2022/06/20 00:29:01;;;;;;;4.50;3.80;;;;;;;12.98;74.57;96566.22;4993380;28;20082;-61
2022/06/20 00:31:30;;;;;;;4.03;3.60;;;;;;;12.92;74.44;96562.13;4993925;28;20047;-60
2022/06/20 00:33:57;;;;;;;3.83;3.53;;;;;;;12.82;75.68;96559.06;4993778;28;20047;-61
2022/06/20 00:36:24;;;;;;;4.57;3.72;;;;;;;12.85;75.31;96564.16;4993759;28;20043;-61
2022/06/20 00:38:54;;;;;;;3.30;2.92;;;;;;;12.83;75.21;96555.53;4993661;28;20109;-61
2022/06/20 00:41:26;;;;;;;4.60;3.70;;;;;;;12.76;75.57;96556.72;4993351;28;20109;-60
2022/06/20 00:43:54;;;;;;;3.47;3.17;;;;;;;12.67;75.33;96549.28;4993590;28;20061;-61
2022/06/20 00:46:32;;;;;;;3.40;3.10;;;;;;;12.65;75.14;96544.13;4993523;28;20133;-62
2022/06/20 00:49:07;;;;;;;3.50;3.20;;;;;;;12.60;75.24;96546.94;4993511;28;20042;-61
2022/06/20 00:51:40;;;;;;;3.63;3.33;;;;;;;12.52;75.63;96546.44;4993562;28;20042;-62
2022/06/20 00:54:18;;;;;;;3.42;3.13;;;;;;;12.42;76.01;96553.03;4993518;28;20113;-61
2022/06/20 00:56:53;;;;;;;3.65;3.20;;;;;;;12.46;75.97;96544.13;4993527;28;20093;-61
2022/06/20 00:59:26;;;;;;;5.47;3.33;;;;;;;12.47;75.42;96543.19;4993402;28;20523;-61
2022/06/20 01:01:54;;;;;;;4.47;3.42;;;;;;;12.49;75.86;96541.31;4993315;28;20129;-61
2022/06/20 01:04:29;;;;;;;4.60;3.58;;;;;;;12.51;76.20;96536.88;4993459;28;20129;-60
2022/06/20 01:06:58;;;;;;;3.60;3.30;;;;;;;12.51;75.63;96534.25;4993386;28;20174;-61
2022/06/20 01:09:30;;;;;;;4.20;2.72;;;;;;;12.53;75.30;96532.41;4993390;28;20657;-61
2022/06/20 01:12:02;;;;;;;3.72;3.33;;;;;;;12.51;75.15;96535.09;4993346;28;20053;-61
2022/06/20 01:14:34;;;;;;;5.78;3.03;;;;;;;12.51;75.14;96531.63;4993373;28;20054;-61
2022/06/20 01:17:03;;;;;;;3.13;2.83;;;;;;;12.44;75.16;96528.44;4993360;28;20046;-61
2022/06/20 01:19:48;;;;;;;3.53;3.25;;;;;;;12.42;75.50;96530.28;4993219;28;20050;-61
2022/06/20 01:22:39;;;;;;;4.35;3.53;;;;;;;12.39;75.65;96525.16;4993132;28;20100;-61
2022/06/20 01:25:19;;;;;;;6.60;3.25;;;;;;;12.37;76.58;96521.75;4993387;28;20138;-61
2022/06/20 01:27:50;;;;;;;4.32;3.33;;;;;;;12.26;76.49;96517.00;4993161;28;20051;-61
2022/06/20 01:30:19;;;;;;;5.55;3.10;;;;;;;12.12;76.33;96515.00;4993003;28;20046;-62
2022/06/20 01:32:47;;;;;;;4.28;3.47;;;;;;;12.14;77.43;96523.66;4993262;28;20085;-60
2022/06/20 01:37:23;;;;;;;3.80;3.17;;;;;;;12.07;77.81;96520.44;4993267;28;20126;-61
2022/06/20 01:38:08;;;;;;;3.75;3.45;;;;;;;12.02;77.88;96519.78;4993155;28;20046;-61
2022/06/20 01:40:37;;;;;;;3.20;3.00;;;;;;;11.93;78.49;96515.81;4993084;28;20047;-61
2022/06/20 01:43:05;;;;;;;4.03;3.63;;;;;;;11.87;78.48;96511.66;4993067;28;20049;-61
2022/06/20 01:48:21;;;;;;;4.50;3.70;;;;;;;11.84;79.19;96516.19;4986140;28;20050;-61
2022/06/20 01:50:48;;;;;;;3.60;3.20;;;;;;;11.82;78.25;96518.88;4993062;28;20050;-61
2022/06/20 01:53:18;;;;;;;4.53;3.65;;;;;;;11.77;78.99;96518.22;4993179;28;20046;-61
2022/06/20 01:55:48;;;;;;;5.45;3.58;;;;;;;11.75;78.88;96518.28;4996487;28;20065;-60
2022/06/20 01:58:23;;;;;;;3.93;3.60;;;;;;;11.80;78.57;96512.84;4996504;28;20177;-61
2022/06/20 02:00:50;;;;;;;3.83;3.53;;;;;;;11.80;78.53;96510.22;4996362;28;20082;-61
2022/06/20 02:03:21;;;;;;;4.90;3.70;;;;;;;11.79;79.69;96510.28;4996462;28;20074;-60
2022/06/20 02:05:54;;;;;;;6.88;4.10;;;;;;;11.70;79.52;96499.28;4996257;28;20100;-61
2022/06/20 02:08:24;;;;;;;4.25;3.83;;;;;;;11.61;79.47;96497.06;4996255;28;20133;-60
2022/06/20 02:10:56;;;;;;;5.18;3.67;;;;;;;11.61;79.63;96491.81;4996199;28;20050;-60
2022/06/20 02:13:29;;;;;;;5.32;3.58;;;;;;;11.69;79.98;96494.97;4996025;28;20050;-61
2022/06/20 02:16:01;;;;;;;3.97;3.67;;;;;;;11.75;79.84;96492.06;4996032;28;20097;-60
2022/06/20 02:18:30;;;;;;;5.05;4.00;;;;;;;11.80;78.95;96494.50;4996004;28;20058;-61
2022/06/20 02:21:01;;;;;;;3.97;3.35;;;;;;;11.84;78.97;96490.84;4995966;28;20047;-61
2022/06/20 02:23:32;;;;;;;6.13;3.47;;;;;;;11.87;79.08;96493.31;4996024;28;20073;-61
2022/06/20 02:26:01;;;;;;;5.90;3.15;;;;;;;11.88;79.27;96489.78;4996035;28;20077;-61
2022/06/20 02:28:36;;;;;;;3.05;2.70;;;;;;;11.88;78.68;96495.03;4995911;28;20054;-60
2022/06/20 02:31:07;;;;;;;3.42;3.13;;;;;;;11.90;78.32;96494.97;4995757;28;20480;-61
2022/06/20 02:33:35;;;;;;;5.22;3.53;;;;;;;11.85;78.20;96487.28;4995844;28;20050;-61
2022/06/20 02:36:06;;;;;;;3.45;3.13;;;;;;;11.75;78.75;96486.84;4995755;28;20077;-60
2022/06/20 02:38:34;;;;;;;3.72;3.28;;;;;;;11.73;79.01;96485.19;4995661;28;20050;-61
2022/06/20 02:41:01;;;;;;;6.45;3.83;;;;;;;11.72;78.97;96487.00;4995598;28;20046;-61
2022/06/20 02:43:36;;;;;;;3.90;3.50;;;;;;;11.72;78.63;96484.38;4995585;28;20042;-61
2022/06/20 02:46:08;;;;;;;3.17;2.88;;;;;;;11.77;78.83;96480.69;4995546;28;20054;-61
2022/06/20 02:48:38;;;;;;;3.95;3.30;;;;;;;11.70;78.67;96482.72;4995447;28;20485;-61
2022/06/20 02:51:08;;;;;;;5.05;3.35;;;;;;;11.75;78.84;96486.00;4995486;28;20457;-61
2022/06/20 02:53:41;;;;;;;3.33;3.08;;;;;;;11.69;78.86;96483.63;4995404;28;20568;-60
2022/06/20 02:56:13;;;;;;;3.33;3.03;;;;;;;11.60;79.26;96485.75;4995358;28;20078;-61
2022/06/20 02:58:45;;;;;;;3.47;3.13;;;;;;;11.62;79.00;96481.28;4995342;28;20127;-62
2022/06/20 03:01:16;;;;;;;6.18;3.30;;;;;;;11.59;79.00;96483.19;4995278;28;20113;-61
2022/06/20 03:03:48;;;;;;;4.05;3.20;;;;;;;11.53;79.68;96484.28;4995227;28;20046;-60
2022/06/20 03:06:22;;;;;;;3.92;3.17;;;;;;;11.59;79.77;96480.56;4995128;28;20046;-61
2022/06/20 03:08:50;;;;;;;3.75;3.28;;;;;;;11.63;79.00;96487.38;4995167;28;20054;-61
2022/06/20 03:11:18;;;;;;;4.03;3.63;;;;;;;11.64;78.65;96489.06;4995120;28;20060;-61
2022/06/20 03:13:47;;;;;;;4.82;3.38;;;;;;;11.66;79.29;96486.41;4995216;28;20054;-61
2022/06/20 03:16:15;;;;;;;3.78;3.40;;;;;;;11.61;79.47;96479.59;4995071;28;20053;-60
2022/06/20 03:18:44;;;;;;;3.58;3.28;;;;;;;11.58;79.31;96484.09;4995030;28;20059;-61
2022/06/20 03:21:13;;;;;;;3.75;3.25;;;;;;;11.65;79.71;96484.69;4994950;28;20145;-61
2022/06/20 03:23:40;;;;;;;3.22;2.92;;;;;;;11.68;79.42;96481.94;4994848;28;20073;-60
2022/06/20 03:26:14;;;;;;;6.85;2.80;;;;;;;11.74;80.11;96485.13;4994790;28;20054;-61
2022/06/20 03:28:41;;;;;;;4.57;3.10;;;;;;;11.95;80.95;96482.50;4994407;28;20098;-61
2022/06/20 03:31:11;;;;;;;3.70;3.20;;;;;;;12.17;79.12;96478.94;4994743;28;20566;-61
2022/06/20 03:33:39;;;;;;;7.93;2.65;;;;;;;12.53;78.85;96473.84;4994721;28;20081;-61
2022/06/20 03:36:11;;;;;;;4.35;2.60;;;;;;;12.95;77.47;96466.59;4994600;28;20461;-61
2022/06/20 03:38:40;;;;;;;2.80;2.60;;;;;;;13.46;75.41;96468.50;4994560;28;20101;-60
2022/06/20 03:41:08;;;;;;;2.30;2.10;;;;;;;14.00;73.16;96470.97;4994356;28;20215;-61
2022/06/20 03:43:38;;;;;;;3.15;2.40;;;;;;;14.50;71.63;96488.53;4994504;28;20085;-61
2022/06/20 03:46:11;;;;;;;2.50;2.30;;;;;;;15.05;70.23;96480.31;4994333;28;20088;-61
2022/06/20 03:48:44;;;;;;;2.13;1.77;;;;;;;15.55;67.88;96473.03;4994382;28;20051;-62
2022/06/20 03:51:15;;;;;;;3.78;2.10;;;;;;;16.04;66.59;96478.94;4994354;28;20109;-61
2022/06/20 03:53:47;;;;;;;7.63;1.80;;;;;;;16.38;65.11;96470.75;4994251;28;20082;-61
2022/06/20 03:56:20;;;;;;;2.30;2.10;;;;;;;16.79;64.14;96466.38;4994354;28;20053;-61
2022/06/20 03:58:53;;;;;;;2.65;1.88;;;;;;;17.18;62.75;96466.56;4994252;28;20051;-62
2022/06/20 04:01:24;;;;;;;6.82;1.90;;;;;;;17.52;62.05;96469.59;4994185;28;20054;-61
2022/06/20 04:03:58;;;;;;;5.60;2.00;;;;;;;17.75;61.49;96464.56;4994124;28;20046;-61
2022/06/20 04:06:31;;;;;;;4.13;2.15;;;;;;;18.10;60.43;96467.50;4994046;28;20105;-61
2022/06/20 04:11:52;;;;;;;2.92;2.25;;;;;;;18.90;58.50;96463.63;4994157;28;20143;-61
2022/06/20 04:14:23;;;;;;;5.18;1.90;;;;;;;19.25;58.00;96459.38;4993672;28;20109;-61
2022/06/20 04:16:56;;;;;;;4.72;1.83;;;;;;;19.63;56.92;96457.41;4993509;28;20108;-61
2022/06/20 04:19:30;;;;;;;3.72;1.80;;;;;;;20.00;56.41;96451.09;4993898;28;20105;-61
2022/06/20 04:22:02;;;;;;;2.90;1.38;;;;;;;20.38;56.20;96461.50;4993945;28;20049;-61
2022/06/20 04:24:36;;;;;;;1.75;1.63;;;;;;;20.69;55.31;96456.38;4993840;28;20086;-61
2022/06/20 04:27:08;;;;;;;1.80;1.70;;;;;;;21.00;54.60;96453.91;4993766;28;20389;-61
2022/06/20 04:29:40;;;;;;;2.88;1.58;;;;;;;21.36;53.87;96464.28;4993420;28;20077;-60
2022/06/20 04:32:17;;;;;;;1.67;1.58;;;;;;;21.68;53.28;96462.56;4993864;28;20043;-61
2022/06/20 04:34:51;;;;;;;2.10;1.60;;;;;;;21.98;52.49;96471.59;4993775;28;20130;-61
2022/06/20 04:37:24;;;;;;;4.35;1.80;;;;;;;22.26;52.07;96463.88;4993713;28;20051;-61
2022/06/20 04:39:57;;;;;;;5.25;1.70;;;;;;;22.51;49.92;96466.22;4993588;28;20057;-61
2022/06/20 04:42:33;;;;;;;2.88;1.88;;;;;;;22.81;50.78;96462.69;4993626;28;20082;-61
2022/06/20 04:45:05;;;;;;;5.38;1.65;;;;;;;22.99;50.16;96469.19;4993464;28;20060;-61
2022/06/20 04:47:41;;;;;;;1.85;1.67;;;;;;;23.26;49.29;96463.13;4993565;28;20489;-61
2022/06/20 04:50:16;;;;;;;1.83;1.63;;;;;;;23.63;48.81;96458.09;4993530;28;20054;-61
2022/06/20 04:52:44;;;;;;;2.65;1.70;;;;;;;23.87;47.66;96452.28;4993495;28;20497;-61
2022/06/20 04:55:16;;;;;;;1.75;1.63;;;;;;;24.14;46.81;96458.69;4993607;28;20048;-61
2022/06/20 04:57:43;;;;;;;4.78;1.80;;;;;;;24.41;47.66;96449.03;4993420;28;20412;-61
2022/06/20 05:00:18;;;;;;;1.92;1.40;;;;;;;24.66;47.70;96448.50;4993324;28;20404;-61
2022/06/20 05:02:46;;;;;;;2.95;1.77;;;;;;;24.86;47.49;96449.19;4993554;28;20094;-61
2022/06/20 05:05:19;;;;;;;1.88;1.60;;;;;;;25.21;47.45;96458.28;4993496;28;20054;-61
2022/06/20 05:07:50;;;;;;;3.17;1.80;;;;;;;25.48;47.76;96453.84;4993343;28;20467;-60
2022/06/20 05:10:21;;;;;;;1.80;1.40;;;;;;;25.67;46.17;96448.50;4993420;28;20046;-61
2022/06/20 05:12:54;;;;;;;3.63;1.70;;;;;;;25.84;46.09;96447.63;4993375;28;20054;-60
2022/06/20 05:15:29;;;;;;;2.08;1.88;;;;;;;26.04;45.81;96443.88;4993366;28;20043;-61
2022/06/20 05:17:58;;;;;;;1.77;1.60;;;;;;;26.24;44.51;96448.00;4993310;28;20072;-60
2022/06/20 05:20:32;;;;;;;2.22;1.83;;;;;;;26.53;44.39;96447.81;4993243;28;20133;-61
2022/06/20 05:23:03;;;;;;;3.55;1.58;;;;;;;26.81;42.53;96453.78;4993266;28;20564;-61
2022/06/20 05:25:33;;;;;;;2.50;2.00;;;;;;;27.07;43.00;96452.88;4993324;28;20504;-61
2022/06/20 05:28:03;;;;;;;3.35;1.80;;;;;;;27.33;41.91;96449.19;4993117;28;20050;-61
2022/06/20 05:30:33;;;;;;;3.97;1.70;;;;;;;27.44;39.51;96445.34;4996548;28;20050;-61
2022/06/20 05:33:05;;;;;;;2.45;1.25;;;;;;;27.55;40.96;96452.25;4997012;28;20094;-61
2022/06/20 05:35:40;;;;;;;3.45;1.42;;;;;;;27.75;41.91;96447.38;4996924;28;20125;-60
2022/06/20 05:38:18;;;;;;;5.47;1.95;;;;;;;28.01;41.95;96445.50;4996761;28;20137;-62
2022/06/20 05:40:49;;;;;;;3.25;1.52;;;;;;;28.34;41.74;96444.59;4996680;28;20097;-61
2022/06/20 05:43:21;;;;;;;2.47;1.55;;;;;;;28.58;40.79;96443.66;4996815;28;20101;-61
2022/06/20 05:45:51;;;;;;;5.55;1.60;;;;;;;28.89;39.59;96441.97;4996637;28;20051;-61
2022/06/20 05:48:20;;;;;;;4.20;1.63;;;;;;;29.16;39.60;96442.50;4996663;28;20043;-62
2022/06/20 05:50:54;;;;;;;2.05;1.50;;;;;;;29.37;37.69;96441.84;4996598;28;20452;-60
2022/06/20 05:53:31;;;;;;;6.03;1.65;;;;;;;29.44;36.64;96439.31;4996511;28;20054;-61
2022/06/20 05:56:00;;;;;;;1.58;1.48;;;;;;;29.60;37.06;96440.19;4996601;28;20050;-61
2022/06/20 05:58:29;;;;;;;3.55;1.50;;;;;;;29.82;36.91;96440.31;4996534;28;20046;-61
2022/06/20 06:01:02;;;;;;;1.80;1.60;;;;;;;29.82;36.23;96437.63;4996355;28;20143;-61
2022/06/20 06:03:35;;;;;;;1.55;1.42;;;;;;;29.93;35.17;96439.03;4996348;28;20049;-62
2022/06/20 06:06:10;;;;;;;1.73;1.48;;;;;;;29.86;36.87;96436.25;4996350;28;20053;-61
2022/06/20 06:08:44;;;;;;;1.92;1.63;;;;;;;29.84;35.38;96430.22;4996317;28;20050;-61
2022/06/20 06:11:18;;;;;;;1.80;1.67;;;;;;;29.92;35.92;96427.44;4996274;28;20416;-61
2022/06/20 06:13:51;;;;;;;4.70;1.58;;;;;;;29.87;34.99;96429.84;4996259;28;20386;-61
2022/06/20 06:19:15;;;;;;;3.70;1.45;;;;;;;30.14;34.81;96431.09;4996112;28;20193;-61
2022/06/20 06:21:45;;;;;;;2.50;1.20;;;;;;;30.27;35.20;96427.75;4995959;28;20136;-61
2022/06/20 06:24:15;;;;;;;1.55;1.42;;;;;;;30.55;33.97;96422.72;4995889;28;20051;-61
2022/06/20 06:26:45;;;;;;;3.45;1.40;;;;;;;30.62;32.04;96419.06;4996052;28;20049;-62
2022/06/20 06:29:20;;;;;;;5.25;1.58;;;;;;;30.61;32.71;96420.09;4995690;28;20519;-61
2022/06/20 06:31:50;;;;;;;2.50;1.55;;;;;;;30.86;32.32;96414.41;4995807;28;20042;-61
2022/06/20 06:34:21;;;;;;;2.42;1.63;;;;;;;30.93;33.17;96419.84;4995826;28;20050;-62
2022/06/20 06:36:53;;;;;;;3.45;1.40;;;;;;;31.09;32.61;96420.66;4995832;28;20515;-61
2022/06/20 06:39:27;;;;;;;4.65;1.40;;;;;;;30.95;30.36;96407.00;4995259;28;20046;-62
2022/06/20 06:41:57;;;;;;;1.52;1.42;;;;;;;30.85;33.41;96403.78;4995481;28;20120;-61
2022/06/20 06:44:31;;;;;;;1.63;1.30;;;;;;;31.11;32.32;96411.31;4995680;28;20112;-62
2022/06/20 06:46:58;;;;;;;5.85;1.30;;;;;;;31.28;32.24;96402.97;4995550;28;20104;-61
2022/06/20 06:49:34;;;;;;;4.25;1.50;;;;;;;31.26;31.65;96410.41;4995588;28;20054;-61
2022/06/20 06:52:23;;;;;;;4.47;1.67;;;;;;;31.24;30.85;96407.91;4995556;28;20077;-61
2022/06/20 06:54:58;;;;;;;2.25;1.30;;;;;;;30.96;30.65;96402.44;4995519;28;20088;-61
2022/06/20 06:57:32;;;;;;;1.73;1.30;;;;;;;30.82;31.91;96401.47;4995408;28;20054;-61
2022/06/20 07:00:22;;;;;;;8.68;1.15;;;;;;;30.83;33.01;96400.44;4995410;28;20050;-61
2022/06/20 07:02:54;;;;;;;3.40;1.10;;;;;;;30.49;29.88;96400.03;4995228;28;20046;-60
2022/06/20 07:05:28;;;;;;;3.20;0.98;;;;;;;30.41;27.26;96394.72;4995279;28;20050;-62
2022/06/20 07:08:01;;;;;;;2.25;1.08;;;;;;;30.50;29.27;96397.16;4995180;28;20057;-61
2022/06/20 07:10:33;;;;;;;3.53;1.00;;;;;;;30.35;28.74;96394.47;4995352;28;20050;-61
2022/06/20 07:13:07;;;;;;;1.23;1.08;;;;;;;30.51;27.98;96396.09;4995157;28;20052;-61
2022/06/20 07:15:35;;;;;;;0.82;0.82;;;;;;;30.36;27.98;96389.88;4995148;28;20042;-61
2022/06/20 07:18:05;;;;;;;4.25;1.02;;;;;;;29.86;27.30;96396.66;4994953;28;20051;-61
2022/06/20 07:20:36;;;;;;;2.95;1.30;;;;;;;29.77;27.89;96384.31;4994805;28;20046;-61
2022/06/20 07:23:10;;;;;;;25.60;1.48;;;;;;;29.64;28.53;96388.47;4994902;28;20042;-61
2022/06/20 07:25:41;;;;;;;1.70;1.05;;;;;;;29.52;29.14;96379.13;4994917;28;20481;-60
2022/06/20 07:28:15;;;;;;;4.65;1.10;;;;;;;29.75;29.48;96387.19;4994791;28;20054;-61
2022/06/20 07:30:47;;;;;;;3.35;1.23;;;;;;;29.96;29.98;96379.38;4994436;28;20444;-60
2022/06/20 07:33:20;;;;;;;1.30;1.20;;;;;;;30.15;33.06;96383.38;4994882;28;20051;-61
2022/06/20 07:35:55;;;;;;;4.15;1.20;;;;;;;30.18;28.23;96379.50;4994720;28;20054;-61
2022/06/20 07:38:29;;;;;;;2.85;1.13;;;;;;;30.17;28.46;96378.66;4994590;28;20047;-61
2022/06/20 07:41:00;;;;;;;1.63;1.05;;;;;;;29.80;27.49;96383.09;4994412;28;20046;-60
2022/06/20 07:43:35;;;;;;;1.85;1.10;;;;;;;29.92;27.91;96378.94;4994495;28;20089;-60
2022/06/20 07:46:08;;;;;;;4.75;1.35;;;;;;;30.10;27.88;96377.72;4994485;28;20046;-61
2022/06/20 07:48:38;;;;;;;5.35;1.00;;;;;;;30.25;27.75;96372.34;4994441;28;20046;-61
2022/06/20 07:51:13;;;;;;;1.25;1.10;;;;;;;30.21;28.38;96376.41;4993845;28;20066;-61
2022/06/20 07:53:46;;;;;;;1.92;1.20;;;;;;;29.88;27.38;96372.22;4994422;28;20054;-60
2022/06/20 07:56:17;;;;;;;1.25;1.15;;;;;;;29.37;27.01;96369.16;4994410;28;20077;-61
2022/06/20 07:58:52;;;;;;;2.83;1.10;;;;;;;29.47;27.21;96368.88;4994198;28;20193;-60
2022/06/20 08:01:25;;;;;;;2.65;1.23;;;;;;;29.50;26.62;96360.44;4994148;28;20408;-60
2022/06/20 08:03:58;;;;;;;1.48;0.80;;;;;;;29.82;28.18;96362.16;4994224;28;20145;-61
2022/06/20 08:06:28;;;;;;;3.33;1.10;;;;;;;30.02;26.00;96362.47;4994090;28;20050;-62
2022/06/20 08:09:03;;;;;;;4.75;1.00;;;;;;;29.81;28.90;96355.97;4994026;28;20089;-61
2022/06/20 08:11:42;;;;;;;6.15;1.20;;;;;;;29.79;27.40;96358.00;4994015;28;20050;-61
2022/06/20 08:14:17;;;;;;;2.92;1.33;;;;;;;29.86;28.12;96355.41;4994140;28;20086;-61
2022/06/20 08:16:47;;;;;;;1.35;1.00;;;;;;;30.06;27.16;96358.38;4994079;28;20086;-61
2022/06/20 08:19:14;;;;;;;1.75;1.33;;;;;;;30.33;26.91;96350.66;4993984;28;20109;-60
2022/06/20 08:21:45;;;;;;;4.43;1.15;;;;;;;29.97;27.70;96354.09;4993879;28;20141;-61
2022/06/20 08:24:21;;;;;;;1.08;0.90;;;;;;;29.92;28.22;96348.44;4993867;28;20049;-61
2022/06/20 08:26:56;;;;;;;5.70;1.55;;;;;;;30.12;27.60;96346.84;4993802;28;20042;-62
2022/06/20 08:29:32;;;;;;;1.20;1.08;;;;;;;30.11;26.81;96347.03;4993639;28;20133;-61
2022/06/20 08:32:09;;;;;;;1.63;1.15;;;;;;;30.16;27.29;96341.06;4993772;28;20085;-61
2022/06/20 08:34:48;;;;;;;3.28;1.20;;;;;;;29.93;25.90;96350.09;4993823;28;20046;-61
2022/06/20 08:37:22;;;;;;;4.15;1.02;;;;;;;29.64;27.86;96339.97;4993693;28;20558;-61
2022/06/20 08:39:58;;;;;;;1.35;1.13;;;;;;;29.69;26.02;96336.72;4993632;28;20054;-61
2022/06/20 08:43:01;;;;;;;1.80;0.90;;;;;;;29.71;25.38;96336.53;4993585;28;20085;-60
2022/06/20 08:45:49;;;;;;;2.88;1.05;;;;;;;29.82;28.16;96335.22;4993652;28;20057;-60
2022/06/20 08:48:55;;;;;;;3.92;1.00;;;;;;;29.91;28.00;96336.81;4993803;28;20455;-60
2022/06/20 08:52:12;;;;;;;1.42;0.90;;;;;;;29.82;27.17;96332.53;4992772;28;20453;-62
2022/06/20 08:55:12;;;;;;;1.30;1.13;;;;;;;29.72;28.41;96324.72;4992155;28;20057;-62
2022/06/20 08:57:53;;;;;;;3.47;1.13;;;;;;;29.87;28.06;96332.81;4993668;28;20050;-62
2022/06/20 09:00:29;;;;;;;2.10;0.98;;;;;;;29.82;27.08;96335.22;4993578;28;20046;-61
2022/06/20 09:03:32;;;;;;;3.45;1.17;;;;;;;29.60;26.95;96337.81;4994366;28;20526;-61
2022/06/20 09:06:18;;;;;;;4.13;1.35;;;;;;;29.63;28.98;96335.63;4997465;28;20073;-62
2022/06/20 09:09:02;;;;;;;1.50;1.13;;;;;;;29.54;29.01;96331.28;4997545;28;20133;-61
2022/06/20 09:11:46;;;;;;;6.07;1.35;;;;;;;29.63;27.15;96332.06;4997459;28;20092;-61
2022/06/20 09:14:31;;;;;;;3.15;0.98;;;;;;;29.36;29.42;96334.31;4997321;28;20132;-61
2022/06/20 09:17:10;;;;;;;1.48;1.10;;;;;;;29.31;28.07;96340.25;4997413;28;20046;-61
2022/06/20 09:20:09;;;;;;;1.58;1.05;;;;;;;29.12;28.92;96337.06;4997332;28;20389;-61
2022/06/20 09:22:56;;;;;;;1.20;1.10;;;;;;;29.64;28.89;96333.75;4992853;28;20129;-61
2022/06/20 09:25:38;;;;;;;3.78;1.10;;;;;;;29.42;27.43;96327.38;4997180;28;20101;-60
2022/06/20 09:28:25;;;;;;;1.35;1.20;;;;;;;29.33;29.92;96324.75;4997063;28;20112;-61
2022/06/20 09:30:59;;;;;;;2.92;1.25;;;;;;;29.26;27.97;96318.44;4996970;28;20112;-61
2022/06/20 09:33:48;;;;;;;1.73;1.02;;;;;;;29.30;28.33;96322.44;4996937;28;20050;-62
2022/06/20 09:36:47;;;;;;;3.88;1.42;;;;;;;28.95;30.51;96333.66;4996958;28;20086;-60
2022/06/20 09:39:31;;;;;;;3.40;1.10;;;;;;;28.53;31.35;96318.81;4996851;28;20083;-61
2022/06/20 09:42:07;;;;;;;2.35;1.15;;;;;;;28.79;31.69;96313.06;4996770;28;20385;-60
2022/06/20 09:44:47;;;;;;;1.30;1.10;;;;;;;28.99;29.72;96315.31;4996864;28;20046;-61
2022/06/20 09:47:27;;;;;;;3.38;1.30;;;;;;;29.13;28.84;96309.13;4996752;28;20129;-61
2022/06/20 09:50:12;;;;;;;1.48;1.38;;;;;;;29.03;30.38;96305.00;4996724;28;20051;-62
2022/06/20 09:52:51;;;;;;;1.83;1.15;;;;;;;28.96;30.87;96304.91;4996645;28;20424;-60
2022/06/20 09:55:28;;;;;;;4.72;1.30;;;;;;;29.14;30.16;96296.50;4996485;28;20046;-62
2022/06/20 09:58:01;;;;;;;3.13;1.00;;;;;;;29.33;30.72;96297.84;4996455;28;20133;-62
2022/06/20 10:00:40;;;;;;;4.82;1.23;;;;;;;29.32;29.98;96300.72;4996400;28;20077;-60
2022/06/20 10:03:18;;;;;;;2.85;1.20;;;;;;;29.31;29.14;96296.34;4996326;28;20493;-61
2022/06/20 10:05:52;;;;;;;2.15;1.15;;;;;;;29.31;29.75;96302.56;4996344;28;20049;-61
2022/06/20 10:08:33;;;;;;;1.27;1.00;;;;;;;29.19;29.69;96298.66;4996236;28;20046;-62
2022/06/20 10:11:07;;;;;;;1.98;1.20;;;;;;;29.03;29.61;96299.63;4996209;28;20042;-60
2022/06/20 10:13:40;;;;;;;1.30;1.10;;;;;;;28.58;30.14;96290.34;4996382;28;20050;-60
2022/06/20 10:16:17;;;;;;;4.47;1.33;;;;;;;27.97;31.91;96299.91;4995322;28;20042;-61
2022/06/20 10:18:51;;;;;;;1.88;1.40;;;;;;;27.80;33.77;96300.97;4996153;28;20504;-61
2022/06/20 10:21:26;;;;;;;2.88;1.08;;;;;;;27.75;35.45;96296.09;4996048;28;20052;-61
2022/06/20 10:24:15;;;;;;;7.00;1.42;;;;;;;27.63;33.61;96291.06;4996219;28;20484;-61
2022/06/20 10:27:02;;;;;;;1.70;1.13;;;;;;;27.64;36.05;96291.94;4996109;28;20109;-60
2022/06/20 10:29:44;;;;;;;5.18;1.13;;;;;;;28.01;33.77;96289.63;4995639;28;20053;-61
2022/06/20 10:32:17;;;;;;;4.18;1.20;;;;;;;28.40;34.32;96279.88;4995855;28;20042;-62
2022/06/20 10:34:51;;;;;;;4.60;1.33;;;;;;;28.76;32.26;96284.66;4995847;28;20138;-61
2022/06/20 10:37:27;;;;;;;2.15;1.40;;;;;;;29.17;29.65;96282.69;4995783;28;20480;-62
2022/06/20 10:40:01;;;;;;;2.38;1.13;;;;;;;29.18;29.92;96278.97;4995753;28;20141;-62
2022/06/20 10:42:34;;;;;;;3.85;1.05;;;;;;;28.87;28.58;96277.19;4995553;28;20054;-61
2022/06/20 10:45:26;;;;;;;1.48;0.95;;;;;;;28.60;28.75;96276.72;4995675;28;20042;-60
2022/06/20 10:48:16;;;;;;;3.40;1.25;;;;;;;28.33;30.52;96276.22;4995612;28;20412;-61
2022/06/20 10:50:49;;;;;;;3.35;1.17;;;;;;;28.15;29.18;96273.78;4995525;28;20088;-60
2022/06/20 10:53:35;;;;;;;3.42;1.40;;;;;;;28.33;32.62;96271.69;4995512;28;20042;-61
2022/06/20 10:56:16;;;;;;;1.27;0.90;;;;;;;28.45;28.81;96264.06;4995429;28;20050;-61
2022/06/20 10:58:59;;;;;;;1.95;1.02;;;;;;;28.53;29.86;96267.69;4995392;28;20054;-60
2022/06/20 11:01:41;;;;;;;3.20;1.00;;;;;;;28.42;29.39;96263.56;4995515;28;20042;-61
2022/06/20 11:04:28;;;;;;;1.95;1.00;;;;;;;28.39;32.44;96264.75;4995326;28;20484;-61
2022/06/20 11:07:12;;;;;;;1.60;1.20;;;;;;;28.60;30.90;96263.28;4995318;28;20054;-61
2022/06/20 11:09:51;;;;;;;3.30;1.23;;;;;;;28.98;29.31;96257.94;4995192;28;20452;-61
2022/06/20 11:12:27;;;;;;;1.63;1.33;;;;;;;28.84;28.25;96259.53;4995124;28;20138;-61
2022/06/20 11:15:03;;;;;;;3.20;1.02;;;;;;;28.50;30.86;96261.66;4995083;28;20497;-62
2022/06/20 11:17:36;;;;;;;3.95;1.20;;;;;;;28.30;30.76;96257.75;4995011;28;20054;-61
2022/06/20 11:20:17;;;;;;;2.28;1.10;;;;;;;28.43;28.80;96262.53;4994930;28;20049;-61
2022/06/20 11:22:49;;;;;;;2.55;1.15;;;;;;;28.38;28.91;96257.69;4994838;28;20065;-62
2022/06/20 11:25:27;;;;;;;1.38;1.10;;;;;;;28.25;29.57;96250.19;4994844;28;20065;-61
2022/06/20 11:28:21;;;;;;;3.85;1.10;;;;;;;28.20;30.75;96245.34;4994838;28;20054;-61
2022/06/20 11:30:57;;;;;;;2.03;1.15;;;;;;;27.82;30.61;96251.44;4994775;28;20047;-61
2022/06/20 11:34:02;;;;;;;1.33;0.95;;;;;;;27.53;30.64;96243.94;4994763;28;20393;-61
2022/06/20 11:36:36;;;;;;;0.95;0.85;;;;;;;27.21;31.17;96247.38;4995019;28;20054;-61
2022/06/20 11:39:14;;;;;;;1.48;1.20;;;;;;;27.16;30.99;96236.34;4994674;28;20078;-60
2022/06/20 11:41:50;;;;;;;3.78;1.50;;;;;;;27.18;36.62;96231.63;4994535;28;20050;-61
2022/06/20 11:44:45;;;;;;;3.35;1.17;;;;;;;27.28;37.84;96231.44;4994476;28;20061;-61
2022/06/20 11:47:28;;;;;;;1.52;0.90;;;;;;;27.50;38.64;96229.03;4994434;28;20547;-61
2022/06/20 11:50:18;;;;;;;2.25;1.10;;;;;;;27.78;35.16;96225.09;4994307;28;20409;-60
2022/06/20 11:52:56;;;;;;;1.35;1.13;;;;;;;27.98;30.63;96223.63;4993370;28;20081;-61
2022/06/20 11:55:29;;;;;;;1.35;0.98;;;;;;;28.45;32.41;96229.09;4994140;28;20050;-60
2022/06/20 11:58:02;;;;;;;3.08;1.08;;;;;;;28.76;32.79;96216.56;4994329;28;20046;-61
2022/06/20 12:00:35;;;;;;;1.38;1.00;;;;;;;29.04;32.01;96210.63;4994307;28;20042;-61
2022/06/20 12:03:13;;;;;;;2.75;1.27;;;;;;;29.14;29.76;96224.63;4994292;28;20050;-61
2022/06/20 12:05:48;;;;;;;2.45;1.20;;;;;;;29.07;32.31;96212.13;4994319;28;20054;-62
2022/06/20 12:08:30;;;;;;;2.13;1.05;;;;;;;28.89;30.62;96205.16;4994299;28;20093;-62
2022/06/20 12:11:00;;;;;;;2.63;1.13;;;;;;;28.59;32.65;96208.63;4994105;28;20046;-62
2022/06/20 12:13:34;;;;;;;;;;;;;;;28.21;31.38;96205.88;4994619;28;20109;-60
2022/06/20 12:16:20;;;;;;;2.00;1.10;;;;;;;27.98;32.74;96199.47;4994174;28;20368;-62
2022/06/20 12:24:45;;;;;;;3.85;0.90;;;;;;;27.48;29.67;96196.16;4993985;28;20061;-61